createdAt,value
2022-11-04T00:01:06.067Z,25.85
2022-11-04T00:06:02.323Z,28.58
2022-11-04T00:11:18.176Z,24.77
2022-11-04T00:16:33.087Z,27.92
2022-11-04T00:21:48.128Z,29.90
2022-11-04T00:27:03.138Z,34.28
2022-11-04T00:32:18.118Z,35.78
2022-11-04T00:37:14.300Z,38.97
2022-11-04T00:42:10.644Z,39.05
2022-11-04T00:47:06.896Z,37.38
2022-11-04T00:52:03.167Z,37.00
2022-11-04T00:56:59.373Z,38.88
2022-11-04T01:01:56.003Z,37.83
2022-11-04T01:06:52.413Z,39.78
2022-11-04T01:11:48.653Z,38.55
2022-11-04T01:16:44.878Z,39.78
2022-11-04T01:21:41.134Z,40.63
2022-11-04T01:26:37.436Z,45.33
2022-11-04T01:31:33.768Z,45.42
2022-11-04T01:36:29.979Z,43.30
2022-11-04T01:41:27.994Z,44.72
2022-11-04T01:46:37.948Z,45.67
2022-11-04T01:51:36.507Z,45.20
2022-11-04T01:56:32.969Z,46.15
2022-11-04T02:01:29.247Z,46.92
2022-11-04T02:06:25.588Z,49.95
2022-11-04T02:11:40.708Z,52.22
2022-11-04T02:16:42.694Z,54.80
2022-11-04T02:21:41.935Z,56.73
2022-11-04T02:26:50.233Z,56.97
2022-11-04T02:31:49.269Z,56.53
2022-11-04T02:36:54.562Z,55.80
2022-11-04T02:41:58.453Z,62.17
2022-11-04T02:47:06.273Z,66.03
2022-11-04T02:52:05.056Z,70.53
2022-11-04T02:57:03.629Z,76.00
2022-11-04T03:02:01.184Z,70.32
2022-11-04T03:06:58.894Z,80.00
2022-11-04T03:12:02.331Z,85.78
2022-11-04T03:17:01.313Z,87.40
2022-11-04T03:22:03.404Z,84.13
2022-11-04T03:27:02.551Z,91.43
2022-11-04T03:32:08.913Z,93.50
2022-11-04T03:37:05.646Z,91.60
2022-11-04T03:42:19.819Z,100.93
2022-11-04T03:47:17.106Z,104.03
2022-11-04T03:52:13.981Z,106.53
2022-11-04T03:57:10.183Z,106.47
2022-11-04T04:02:15.205Z,109.25
2022-11-04T04:07:20.201Z,113.97
2022-11-04T04:12:40.132Z,112.22
2022-11-04T04:17:39.118Z,110.13
2022-11-04T04:22:41.780Z,113.40
2022-11-04T04:32:37.072Z,112.75
2022-11-04T04:37:33.349Z,122.10
2022-11-04T04:42:54.713Z,119.70
2022-11-04T04:47:51.278Z,123.55
2022-11-04T04:52:51.783Z,115.47
2022-11-04T04:57:47.965Z,111.85
2022-11-04T05:02:44.625Z,85.07
2022-11-04T05:07:40.933Z,42.65
2022-11-04T05:12:56.574Z,39.00
2022-11-04T05:17:57.017Z,32.75
2022-11-04T05:22:54.144Z,27.77
2022-11-04T05:27:50.494Z,23.98
2022-11-04T05:32:46.782Z,24.63
2022-11-04T05:37:43.141Z,26.25
2022-11-04T05:42:39.462Z,25.17
2022-11-04T05:47:35.882Z,24.55
2022-11-04T05:52:32.504Z,22.20
2022-11-04T05:57:28.770Z,22.30
2022-11-04T06:02:25.034Z,22.60
2022-11-04T06:07:21.278Z,24.17
2022-11-04T06:12:17.784Z,22.20
2022-11-04T06:17:14.855Z,24.92
2022-11-04T06:22:11.784Z,23.92
2022-11-04T06:27:08.578Z,23.88
2022-11-04T06:32:05.072Z,22.80
2022-11-04T06:37:01.444Z,25.50
2022-11-04T06:41:59.672Z,24.63
2022-11-04T06:46:57.777Z,24.92
2022-11-04T06:51:54.116Z,25.02
2022-11-04T06:56:50.365Z,27.13
2022-11-04T07:01:47.413Z,29.77
2022-11-04T07:06:44.469Z,32.63
2022-11-04T07:11:41.590Z,32.85
2022-11-04T07:16:38.034Z,34.38
2022-11-04T07:21:34.455Z,36.90
2022-11-04T07:26:30.686Z,36.35
2022-11-04T07:31:26.944Z,36.40
2022-11-04T07:36:24.259Z,36.50
2022-11-04T07:41:20.858Z,40.13
2022-11-04T07:46:17.736Z,36.42
2022-11-04T07:51:16.281Z,38.53
2022-11-04T07:56:13.097Z,38.50
2022-11-04T08:01:10.883Z,37.42
2022-11-04T08:06:07.912Z,34.55
2022-11-04T08:11:05.567Z,34.30
2022-11-04T08:16:03.411Z,34.15
2022-11-04T08:21:00.313Z,30.95
2022-11-04T08:25:56.643Z,30.85
2022-11-04T08:30:52.836Z,29.75
2022-11-04T08:35:49.149Z,26.90
2022-11-04T08:40:45.721Z,27.13
2022-11-04T08:45:43.494Z,27.55
2022-11-04T08:50:39.946Z,25.73
2022-11-04T08:55:36.267Z,25.98
2022-11-04T09:00:33.070Z,26.27
2022-11-04T09:05:29.383Z,23.80
2022-11-04T09:10:25.617Z,23.70
2022-11-04T09:15:21.880Z,23.17
2022-11-04T09:20:18.218Z,21.80
2022-11-04T09:25:14.474Z,22.33
2022-11-04T09:30:11.114Z,20.40
2022-11-04T09:35:07.721Z,20.85
2022-11-04T09:40:04.233Z,19.95
2022-11-04T09:45:22.147Z,19.70
2022-11-04T09:50:31.014Z,19.05
2022-11-04T09:55:33.026Z,17.17
2022-11-04T10:00:31.493Z,17.13
2022-11-04T10:05:39.770Z,17.25
2022-11-04T10:10:41.233Z,20.70
2022-11-04T10:15:43.303Z,18.50
2022-11-04T10:20:45.595Z,20.38
2022-11-04T10:25:46.951Z,21.52
2022-11-04T10:30:46.364Z,22.02
2022-11-04T10:35:45.791Z,20.63
2022-11-04T10:40:42.864Z,23.38
2022-11-04T10:46:08.446Z,20.77
2022-11-04T10:51:04.868Z,19.92
2022-11-04T10:56:27.334Z,20.20
2022-11-04T11:01:23.787Z,19.98
2022-11-04T11:06:20.212Z,18.90
2022-11-04T11:11:16.796Z,17.80
2022-11-04T11:16:20.498Z,16.20
2022-11-04T11:21:21.288Z,17.80
2022-11-04T11:26:21.664Z,16.48
2022-11-04T11:31:23.617Z,14.52
2022-11-04T11:36:24.564Z,14.57
2022-11-04T11:41:25.611Z,13.73
2022-11-04T11:46:26.353Z,13.73
2022-11-04T11:51:27.560Z,14.80
2022-11-04T11:56:45.587Z,14.48
2022-11-04T12:02:06.648Z,14.00
2022-11-04T12:12:44.531Z,12.45
2022-11-04T12:17:43.970Z,12.05
2022-11-04T12:22:40.540Z,11.23
2022-11-04T12:27:52.341Z,12.40
2022-11-04T12:32:54.536Z,12.00
2022-11-04T12:37:59.733Z,12.60
2022-11-04T12:43:28.304Z,11.90
2022-11-04T12:48:51.887Z,11.73
2022-11-04T12:54:12.543Z,10.23
2022-11-04T12:59:21.336Z,10.93
2022-11-04T13:04:20.677Z,10.90
2022-11-04T13:09:20.429Z,10.25
2022-11-04T13:14:29.104Z,10.55
2022-11-04T13:19:29.014Z,11.00
2022-11-04T13:24:31.725Z,12.80
2022-11-04T13:34:42.590Z,11.57
2022-11-04T13:39:48.400Z,10.38
2022-11-04T13:44:50.104Z,11.02
2022-11-04T13:49:55.260Z,10.50
2022-11-04T13:54:52.929Z,9.52
2022-11-04T14:00:07.322Z,11.13
2022-11-04T14:05:23.896Z,10.00
2022-11-04T14:10:39.262Z,11.52
2022-11-04T14:15:54.273Z,10.35
2022-11-04T14:21:09.051Z,11.63
2022-11-04T14:26:09.578Z,11.75
2022-11-04T14:31:15.852Z,12.20
2022-11-04T14:36:16.481Z,11.52
2022-11-04T14:41:15.723Z,12.73
2022-11-04T14:46:13.085Z,14.13
2022-11-04T14:51:18.563Z,16.65
2022-11-04T14:56:23.035Z,18.00
2022-11-04T15:01:20.369Z,17.60
2022-11-04T15:06:34.441Z,18.27
2022-11-04T15:11:58.310Z,18.13
2022-11-04T15:16:55.790Z,19.75
2022-11-04T15:21:52.075Z,17.40
2022-11-04T15:26:51.888Z,19.00
2022-11-04T15:32:06.570Z,20.90
2022-11-04T15:37:05.349Z,21.20
2022-11-04T15:42:22.089Z,22.55
2022-11-04T15:47:18.383Z,24.92
2022-11-04T15:52:17.542Z,26.35
2022-11-04T15:57:14.971Z,29.10
2022-11-04T16:02:22.715Z,29.80
2022-11-04T16:07:21.820Z,26.80
2022-11-04T16:12:21.468Z,21.25
2022-11-04T16:17:18.218Z,20.80
2022-11-04T16:22:18.286Z,19.05
2022-11-04T16:27:18.864Z,19.45
2022-11-04T16:32:18.291Z,18.67
2022-11-04T16:37:14.649Z,18.33
2022-11-04T16:42:14.670Z,20.88
2022-11-04T16:47:11.240Z,20.58
2022-11-04T16:52:12.647Z,22.45
2022-11-04T16:57:11.743Z,24.20
2022-11-04T17:02:14.932Z,24.83
2022-11-04T17:07:11.233Z,25.05
2022-11-04T17:12:07.888Z,26.90
2022-11-04T17:17:04.371Z,25.80
2022-11-04T17:22:03.419Z,27.55
2022-11-04T17:26:59.813Z,28.05
2022-11-04T17:31:56.063Z,29.85
2022-11-04T17:36:55.129Z,32.95
2022-11-04T17:42:10.597Z,32.45
2022-11-04T17:47:08.126Z,35.88
2022-11-04T17:52:05.432Z,35.30
2022-11-04T17:57:01.729Z,33.72
2022-11-04T18:01:58.112Z,35.63
2022-11-04T18:06:59.853Z,33.63
2022-11-04T18:12:17.565Z,36.15
2022-11-04T18:17:13.861Z,33.28
2022-11-04T18:22:10.130Z,36.80
2022-11-04T18:27:07.401Z,40.80
2022-11-04T18:32:04.000Z,37.95
2022-11-04T18:37:00.734Z,37.28
2022-11-04T18:41:57.023Z,35.45
2022-11-04T18:46:53.197Z,36.92
2022-11-04T18:51:49.379Z,34.05
2022-11-04T18:56:45.701Z,30.83
2022-11-04T19:01:43.058Z,33.97
2022-11-04T19:06:40.889Z,35.17
2022-11-04T19:11:39.819Z,35.25
2022-11-04T19:16:36.421Z,40.28
2022-11-04T19:21:33.049Z,38.85
2022-11-04T19:26:30.701Z,42.22
2022-11-04T19:31:28.699Z,49.25
2022-11-04T19:36:25.464Z,50.53
2022-11-04T19:41:41.042Z,49.80
2022-11-04T19:46:37.731Z,54.17
2022-11-04T19:51:33.991Z,50.90
2022-11-04T19:56:33.340Z,51.42
2022-11-04T20:01:29.621Z,51.70
2022-11-04T20:06:26.011Z,52.65
2022-11-04T20:11:23.215Z,52.50
2022-11-04T20:16:20.607Z,55.15
2022-11-04T20:21:17.784Z,56.58
2022-11-04T20:26:20.279Z,56.25
2022-11-04T20:31:18.499Z,60.17
2022-11-04T20:36:15.577Z,60.47
2022-11-04T20:41:21.760Z,60.30
2022-11-04T20:46:19.523Z,65.88
2022-11-04T20:51:19.984Z,69.05
2022-11-04T20:56:17.697Z,67.72
2022-11-04T21:01:15.431Z,72.30
2022-11-04T21:06:12.031Z,73.50
2022-11-04T21:11:08.336Z,75.63
2022-11-04T21:16:05.613Z,78.10
2022-11-04T21:21:05.680Z,80.93
2022-11-04T21:26:06.647Z,82.00
2022-11-04T21:31:07.219Z,72.88
2022-11-04T21:36:07.911Z,77.68
2022-11-04T21:41:05.733Z,84.35
2022-11-04T21:46:02.935Z,82.60
2022-11-04T21:51:03.551Z,87.70
2022-11-04T21:56:04.764Z,83.07
2022-11-04T22:01:01.460Z,81.25
2022-11-04T22:05:58.760Z,82.93
2022-11-04T22:10:55.603Z,80.80
2022-11-04T22:16:01.432Z,85.68
2022-11-04T22:21:00.567Z,91.47
2022-11-04T22:26:00.720Z,90.43
2022-11-04T22:30:57.413Z,98.75
2022-11-04T22:35:53.663Z,97.47
2022-11-04T22:40:57.102Z,98.00
2022-11-04T22:45:54.566Z,97.75
2022-11-04T22:50:55.173Z,96.25
2022-11-04T22:55:51.843Z,90.90
2022-11-04T23:00:53.533Z,92.03
2022-11-04T23:05:53.400Z,98.75
2022-11-04T23:11:08.413Z,93.38
2022-11-04T23:16:23.789Z,94.47
2022-11-04T23:21:39.227Z,103.45
2022-11-04T23:26:35.738Z,100.50
2022-11-04T23:31:31.978Z,97.45
2022-11-04T23:36:46.915Z,105.20
2022-11-04T23:42:02.019Z,108.05
2022-11-04T23:47:16.941Z,100.57
2022-11-04T23:52:31.854Z,98.10
2022-11-04T23:57:46.822Z,103.57
